Time;durP1;ratioP1;P1;durP2;ratioP2;P2;SDS_P1;SDS_P2;PMS_P1;PMS_P2;Temp;Humidity;BMP_temperature;BMP_pressure;BME280_temperature;BME280_humidity;BME280_pressure;Samples;Min_cycle;Max_cycle;Signal;HPM_P1;HPM_P2
2023/01/12 00:01:52;;;;;;;;;;;;;;;17.68;70.63;100537.28;2331438;75;51468;-75
2023/01/12 00:04:54;;;;;;;;;;;;;;;17.69;70.45;100542.95;2323220;74;51950;-75
2023/01/12 00:07:55;;;;;;;;;;;;;;;17.68;70.62;100541.30;2374188;74;51844;-74
2023/01/12 00:10:57;;;;;;;;;;;;;;;17.68;70.54;100548.81;2343749;75;51399;-74
2023/01/12 00:13:58;;;;;;;;;;;;;;;17.67;70.49;100551.15;2351374;75;51500;-75
2023/01/12 00:17:00;;;;;;;;;;;;;;;17.68;70.53;100556.02;2343160;74;52437;-74
2023/01/12 00:20:03;;;;;;;;;;;;;;;17.67;70.38;100567.72;2367633;74;50716;-74
2023/01/12 00:23:05;;;;;;;;;;;;;;;17.67;70.39;100560.52;2340054;74;51256;-74
2023/01/12 00:26:07;;;;;;;;;;;;;;;17.68;70.29;100568.06;2332153;75;51506;-74
2023/01/12 00:29:08;;;;;;;;;;;;;;;17.68;70.35;100574.75;2305162;76;51589;-74
2023/01/12 00:32:14;;;;;;;;;;;;;;;17.68;70.39;100576.09;2331321;74;51411;-74
2023/01/12 00:35:16;;;;;;;;;;;;;;;17.70;70.42;100562.00;2334028;75;51462;-74
2023/01/12 00:38:18;;;;;;;;;;;;;;;17.69;70.34;100552.31;2346325;75;50153;-74
2023/01/12 00:47:58;;;;;;;;;;;;;;;17.69;70.32;100550.98;2332246;76;22303;-74
2023/01/12 00:51:02;;;;;;;;;;;;;;;17.68;70.34;100554.68;2333591;76;49912;-74
2023/01/12 00:54:03;;;;;;;;;;;;;;;17.69;70.36;100549.64;2325732;75;50998;-74
2023/01/12 00:57:05;;;;;;;;;;;;;;;17.65;70.42;100543.83;2372455;74;50707;-75
2023/01/12 01:00:07;;;;;;;;;;;;;;;17.66;70.37;100537.97;2372277;73;50564;-75
2023/01/12 01:03:09;;;;;;;;;;;;;;;17.64;70.25;100537.63;2371978;75;50725;-75
2023/01/12 01:06:10;;;;;;;;;;;;;;;17.64;70.26;100528.26;2333998;75;51049;-74
2023/01/12 01:09:12;;;;;;;;;;;;;;;17.63;70.24;100525.27;2331950;76;50158;-74
2023/01/12 01:12:13;;;;;;;;;;;;;;;17.66;70.15;100525.92;2330710;76;50352;-74
2023/01/12 01:15:15;;;;;;;;;;;;;;;17.67;69.96;100520.89;2356519;74;50269;-75
2023/01/12 01:18:17;;;;;;;;;;;;;;;17.66;70.16;100531.28;2344418;75;52383;-74
2023/01/12 01:21:18;;;;;;;;;;;;;;;17.66;70.24;100535.30;2372219;74;50276;-74
2023/01/12 01:24:20;;;;;;;;;;;;;;;17.66;70.15;100520.58;2360966;74;50235;-75
2023/01/12 01:27:21;;;;;;;;;;;;;;;17.64;70.12;100521.56;2334023;74;50680;-75
2023/01/12 01:30:23;;;;;;;;;;;;;;;17.64;70.32;100528.26;2305287;76;51666;-75
2023/01/12 01:33:24;;;;;;;;;;;;;;;17.64;70.17;100534.95;2337386;75;51442;-74
2023/01/12 01:36:26;;;;;;;;;;;;;;;17.64;70.34;100524.24;2371563;75;51533;-74
2023/01/12 01:39:27;;;;;;;;;;;;;;;17.64;70.22;100509.53;2374541;74;51463;-74
2023/01/12 01:42:29;;;;;;;;;;;;;;;17.61;70.37;100499.19;2327140;75;51185;-74
2023/01/12 01:45:31;;;;;;;;;;;;;;;17.64;70.25;100492.13;2369324;74;51511;-75
2023/01/12 01:48:33;;;;;;;;;;;;;;;17.62;70.17;100491.51;2375273;73;51284;-75
2023/01/12 01:51:35;;;;;;;;;;;;;;;17.62;70.02;100488.83;2372167;75;51530;-74
2023/01/12 01:54:38;;;;;;;;;;;;;;;17.60;70.34;100488.17;2341286;75;52294;-75
2023/01/12 01:57:41;;;;;;;;;;;;;;;17.61;70.42;100489.83;2331886;74;52225;-75
2023/01/12 02:00:43;;;;;;;;;;;;;;;17.61;70.21;100492.50;2331880;75;50758;-74
2023/01/12 02:03:44;;;;;;;;;;;;;;;17.61;70.25;100486.33;2332610;75;51346;-74
2023/01/12 02:06:47;;;;;;;;;;;;;;;17.60;70.13;100484.16;2331807;75;51420;-74
2023/01/12 02:09:48;;;;;;;;;;;;;;;17.61;70.19;100485.81;2372308;73;50153;-75
2023/01/12 02:16:24;;;;;;;;;;;;;;;17.59;70.26;100475.79;2372776;74;22410;-75
2023/01/12 02:19:30;;;;;;;;;;;;;;;17.60;70.17;100463.27;2307738;76;51246;-75
2023/01/12 02:22:39;;;;;;;;;;;;;;;17.58;70.24;100451.91;2331634;74;51471;-75
2023/01/12 02:25:48;;;;;;;;;;;;;;;17.57;70.30;100456.44;2331977;76;51468;-75
2023/01/12 02:29:10;;;;;;;;;;;;;;;17.56;70.53;100457.43;2334816;74;50277;-75
2023/01/12 02:32:22;;;;;;;;;;;;;;;17.56;70.43;100454.75;2307048;76;51379;-75
2023/01/12 02:35:34;;;;;;;;;;;;;;;17.58;70.55;100460.77;2299130;76;50315;-75
2023/01/12 02:38:56;;;;;;;;;;;;;;;17.56;70.51;100464.12;2334137;75;51417;-75
2023/01/12 02:45:27;;;;;;;;;;;;;;;17.56;70.42;100450.74;2350696;74;24614;-75
2023/01/12 02:48:30;;;;;;;;;;;;;;;17.54;70.49;100443.40;2346071;75;51561;-75
2023/01/12 02:51:33;;;;;;;;;;;;;;;17.56;70.33;100443.23;2372164;73;51417;-75
2023/01/12 02:54:35;;;;;;;;;;;;;;;17.57;70.39;100443.06;2371925;75;50272;-74
2023/01/12 02:57:36;;;;;;;;;;;;;;;17.56;70.17;100437.88;2346515;75;50859;-75
2023/01/12 03:00:39;;;;;;;;;;;;;;;17.54;70.15;100431.36;2372122;75;50641;-75
2023/01/12 03:03:40;;;;;;;;;;;;;;;17.56;70.23;100419.98;2372027;74;50393;-75
2023/01/12 03:06:47;;;;;;;;;;;;;;;17.53;70.24;100423.53;2336879;74;50813;-75
2023/01/12 03:09:50;;;;;;;;;;;;;;;17.53;70.21;100427.55;2320560;75;52327;-75
2023/01/12 03:12:51;;;;;;;;;;;;;;;17.54;70.12;100416.64;2374133;74;51509;-75
2023/01/12 03:15:53;;;;;;;;;;;;;;;17.54;69.99;100417.16;2360263;73;50788;-75
2023/01/12 03:19:01;;;;;;;;;;;;;;;17.52;70.20;100415.16;2334059;75;50259;-75
2023/01/12 03:22:04;;;;;;;;;;;;;;;17.51;70.02;100408.98;2307170;76;51808;-75
2023/01/12 03:25:09;;;;;;;;;;;;;;;17.53;70.01;100412.32;2331871;76;51592;-74
2023/01/12 03:28:11;;;;;;;;;;;;;;;17.51;70.20;100406.31;2331924;75;51586;-75
2023/01/12 03:31:12;;;;;;;;;;;;;;;17.51;70.27;100409.50;2365743;75;50697;-75
2023/01/12 03:34:14;;;;;;;;;;;;;;;17.50;70.58;100411.35;2316541;75;49603;-75
2023/01/12 03:37:20;;;;;;;;;;;;;;;17.51;70.86;100410.84;2292501;76;50651;-74
2023/01/12 03:40:23;;;;;;;;;;;;;;;17.50;70.82;100411.35;2314980;75;51496;-75
2023/01/12 03:43:26;;;;;;;;;;;;;;;17.49;70.52;100412.86;2349211;74;50650;-75
2023/01/12 03:46:29;;;;;;;;;;;;;;;17.50;70.78;100412.69;2349611;74;52061;-75
2023/01/12 03:49:38;;;;;;;;;;;;;;;17.49;70.86;100405.66;2374112;73;50657;-75
2023/01/12 03:52:40;;;;;;;;;;;;;;;17.50;71.23;100407.34;2331612;76;51470;-75
2023/01/12 03:55:42;;;;;;;;;;;;;;;17.49;70.88;100400.31;2331852;76;51421;-74
2023/01/12 03:58:43;;;;;;;;;;;;;;;17.51;70.81;100400.14;2307276;76;51731;-75
2023/01/12 04:01:47;;;;;;;;;;;;;;;17.52;70.50;100405.32;2333904;75;51430;-74
2023/01/12 04:04:49;;;;;;;;;;;;;;;17.51;70.53;100389.44;2331888;73;22373;-74
2023/01/12 04:07:51;;;;;;;;;;;;;;;17.51;70.67;100399.63;2331849;76;51518;-75
2023/01/12 04:10:52;;;;;;;;;;;;;;;17.51;70.45;100396.95;2326530;75;51187;-75
2023/01/12 04:13:54;;;;;;;;;;;;;;;17.49;70.15;100393.63;2360782;74;49403;-75
2023/01/12 04:16:55;;;;;;;;;;;;;;;17.50;70.27;100389.13;2353953;74;50313;-74
2023/01/12 04:19:57;;;;;;;;;;;;;;;17.49;70.20;100383.44;2350815;75;50218;-74
2023/01/12 04:22:58;;;;;;;;;;;;;;;17.48;70.45;100379.11;2304889;76;51203;-75
2023/01/12 04:26:01;;;;;;;;;;;;;;;17.48;70.32;100371.91;2332192;76;50389;-75
2023/01/12 04:29:03;;;;;;;;;;;;;;;17.47;70.15;100382.30;2332471;75;51481;-75
2023/01/12 04:32:04;;;;;;;;;;;;;;;17.47;70.37;100376.95;2357071;75;50446;-75
2023/01/12 04:35:06;;;;;;;;;;;;;;;17.48;70.29;100374.58;2347398;75;52256;-75
2023/01/12 04:38:08;;;;;;;;;;;;;;;17.49;70.56;100366.88;2347013;75;50062;-74
2023/01/12 04:41:09;;;;;;;;;;;;;;;17.50;70.44;100366.39;2369758;75;51495;-75
2023/01/12 04:44:11;;;;;;;;;;;;;;;17.49;70.44;100363.38;2335078;74;51706;-75
2023/01/12 04:47:12;;;;;;;;;;;;;;;17.49;70.52;100354.01;2330040;75;51466;-74
2023/01/12 04:50:14;;;;;;;;;;;;;;;17.49;70.35;100352.67;2331712;76;51427;-74
2023/01/12 04:53:16;;;;;;;;;;;;;;;17.49;70.20;100346.81;2333770;75;50493;-75
2023/01/12 04:56:17;;;;;;;;;;;;;;;17.50;70.40;100344.99;2346850;75;50414;-75
2023/01/12 04:59:19;;;;;;;;;;;;;;;17.48;70.19;100338.47;2346762;75;49612;-75
2023/01/12 05:02:21;;;;;;;;;;;;;;;17.48;70.17;100339.81;2369423;75;50664;-75
2023/01/12 05:05:22;;;;;;;;;;;;;;;17.48;70.01;100344.34;2372068;75;51541;-76
2023/01/12 05:11:43;;;;;;;;;;;;;;;17.50;70.60;100340.47;2370415;75;21697;-77
2023/01/12 05:14:45;;;;;;;;;;;;;;;17.49;70.56;100341.46;2344730;74;51544;-77
2023/01/12 05:17:46;;;;;;;;;;;;;;;17.50;69.84;100341.80;2371635;74;51420;-77
2023/01/12 05:20:48;;;;;;;;;;;;;;;17.51;69.64;100336.77;2367515;74;50344;-77
2023/01/12 05:23:51;;;;;;;;;;;;;;;17.49;69.64;100324.07;2307437;75;52349;-76
2023/01/12 05:26:52;;;;;;;;;;;;;;;17.50;69.70;100321.74;2311071;77;50418;-77
2023/01/12 05:29:58;;;;;;;;;;;;;;;17.48;69.72;100327.77;2323889;76;50262;-76
2023/01/12 05:32:57;;;;;;;;;;;;;;;17.47;69.41;100325.27;2320697;74;22767;-76
2023/01/12 05:35:59;;;;;;;;;;;;;;;17.52;70.78;100318.86;2309958;76;52543;-76
2023/01/12 05:39:00;;;;;;;;;;;;;;;17.54;71.71;100316.84;2334083;75;51482;-76
2023/01/12 05:45:22;;;;;;;;;;;;;;;17.54;71.52;100330.22;2373145;74;22372;-77
2023/01/12 05:48:23;;;;;;;;;;;;;;;17.52;71.64;100334.44;2400407;73;50289;-76
2023/01/12 05:51:25;;;;;;;;;;;;;;;17.52;71.48;100322.39;2386451;73;50557;-76
2023/01/12 05:54:27;;;;;;;;;;;;;;;17.52;71.49;100327.74;2351613;75;51584;-77
2023/01/12 05:57:29;;;;;;;;;;;;;;;17.52;71.31;100321.53;2331819;75;52038;-76
2023/01/12 06:00:30;;;;;;;;;;;;;;;17.54;71.25;100318.17;2305091;76;51021;-76
2023/01/12 06:03:32;;;;;;;;;;;;;;;17.53;71.09;100318.69;2333601;75;50603;-76
2023/01/12 06:06:34;;;;;;;;;;;;;;;17.51;70.96;100315.36;2350964;75;51402;-77
2023/01/12 06:09:35;;;;;;;;;;;;;;;17.51;70.98;100319.38;2372148;74;50635;-77
2023/01/12 06:16:08;;;;;;;;;;;;;;;17.51;70.96;100315.36;2367361;74;22395;-76
2023/01/12 06:19:06;;;;;;;;;;;;;;;17.51;70.76;100314.02;2373504;73;22301;-76
2023/01/12 06:22:08;;;;;;;;;;;;;;;17.48;70.51;100313.06;2371923;74;50175;-76
2023/01/12 06:25:10;;;;;;;;;;;;;;;17.48;70.62;100314.91;2372011;75;50245;-74
2023/01/12 06:28:12;;;;;;;;;;;;;;;17.47;70.80;100314.09;2346870;73;52494;-74
2023/01/12 06:31:14;;;;;;;;;;;;;;;17.48;70.74;100317.08;2374372;74;51523;-75
2023/01/12 06:34:16;;;;;;;;;;;;;;;17.48;70.61;100321.09;2372048;74;49914;-75
2023/01/12 06:37:17;;;;;;;;;;;;;;;17.47;70.61;100318.59;2372024;74;51432;-75
2023/01/12 06:40:19;;;;;;;;;;;;;;;17.48;70.76;100321.09;2346904;75;51324;-76
2023/01/12 06:43:20;;;;;;;;;;;;;;;17.50;71.38;100319.58;2342860;74;50267;-76
2023/01/12 06:46:22;;;;;;;;;;;;;;;17.49;71.20;100317.39;2370933;74;51514;-76
2023/01/12 06:49:23;;;;;;;;;;;;;;;17.51;71.19;100305.17;2351858;75;50253;-76
2023/01/12 06:52:25;;;;;;;;;;;;;;;17.50;70.92;100299.52;2307674;76;51171;-77
2023/01/12 06:55:27;;;;;;;;;;;;;;;17.50;70.96;100292.31;2332142;75;50754;-77
2023/01/12 06:58:29;;;;;;;;;;;;;;;17.36;66.74;100285.11;2333159;75;50353;-76
2023/01/12 07:01:31;;;;;;;;;;;;;;;17.24;65.27;100291.43;2321665;74;50555;-76
2023/01/12 07:04:32;;;;;;;;;;;;;;;17.26;65.66;100292.05;2295120;75;51232;-76
2023/01/12 07:07:36;;;;;;;;;;;;;;;17.25;66.17;100289.58;2372208;75;50628;-75
2023/01/12 07:10:37;;;;;;;;;;;;;;;17.25;66.25;100294.92;2352750;75;52303;-75
2023/01/12 07:13:39;;;;;;;;;;;;;;;17.29;66.79;100293.05;2332414;73;51441;-75
2023/01/12 07:16:40;;;;;;;;;;;;;;;17.43;66.68;100287.89;2333798;74;51490;-74
2023/01/12 07:19:42;;;;;;;;;;;;;;;17.46;66.80;100274.96;2307972;75;51117;-75
2023/01/12 07:22:44;;;;;;;;;;;;;;;17.62;66.57;100277.95;2371314;74;50293;-75
2023/01/12 07:25:45;;;;;;;;;;;;;;;17.69;66.63;100274.86;2374081;75;50632;-74
2023/01/12 07:28:47;;;;;;;;;;;;;;;17.78;66.52;100272.93;2346715;75;53702;-74
2023/01/12 07:31:48;;;;;;;;;;;;;;;17.86;66.32;100272.85;2355430;75;51479;-75
2023/01/12 07:34:50;;;;;;;;;;;;;;;17.81;66.44;100264.55;2331679;75;51428;-74
2023/01/12 07:37:55;;;;;;;;;;;;;;;17.83;66.47;100275.39;2339504;75;51350;-75
2023/01/12 07:41:00;;;;;;;;;;;;;;;17.83;66.49;100273.23;2307266;76;51020;-75
2023/01/12 07:44:02;;;;;;;;;;;;;;;17.79;66.64;100266.55;2345572;74;52189;-74
2023/01/12 07:47:03;;;;;;;;;;;;;;;17.77;66.81;100258.70;2359964;74;51508;-75
2023/01/12 07:50:05;;;;;;;;;;;;;;;17.74;67.06;100258.25;2342804;74;51401;-74
2023/01/12 07:53:07;;;;;;;;;;;;;;;17.72;67.16;100252.25;2325809;75;51599;-77
2023/01/12 07:56:08;;;;;;;;;;;;;;;17.72;67.24;100255.75;2346740;74;50691;-74
2023/01/12 07:59:10;;;;;;;;;;;;;;;17.70;67.36;100243.58;2342490;75;50167;-74
2023/01/12 08:02:15;;;;;;;;;;;;;;;17.68;67.48;100242.95;2331294;76;51513;-74
2023/01/12 08:05:15;;;;;;;;;;;;;;;17.56;67.87;100236.72;2329368;74;23359;-74
2023/01/12 08:08:17;;;;;;;;;;;;;;;17.50;68.00;100234.80;2328431;75;51409;-74
2023/01/12 08:11:18;;;;;;;;;;;;;;;17.50;67.96;100230.80;2326532;76;51639;-73
2023/01/12 08:14:21;;;;;;;;;;;;;;;17.46;68.08;100228.67;2344797;74;51421;-73
2023/01/12 08:17:23;;;;;;;;;;;;;;;17.44;68.10;100228.84;2329521;73;51593;-74
2023/01/12 08:20:26;;;;;;;;;;;;;;;17.40;68.30;100223.05;2365481;75;50211;-74
2023/01/12 08:23:32;;;;;;;;;;;;;;;17.39;68.36;100221.88;2368715;75;50649;-74
2023/01/12 08:26:36;;;;;;;;;;;;;;;17.38;68.38;100212.21;2368812;74;50287;-74
2023/01/12 08:29:42;;;;;;;;;;;;;;;17.39;68.45;100221.88;2314591;75;51299;-74
2023/01/12 08:32:44;;;;;;;;;;;;;;;17.44;68.44;100217.32;2323224;75;51529;-74
2023/01/12 08:35:46;;;;;;;;;;;;;;;17.42;68.51;100217.52;2327885;75;51561;-77
2023/01/12 08:38:47;;;;;;;;;;;;;;;17.39;68.46;100216.53;2331909;76;52173;-74
2023/01/12 08:41:49;;;;;;;;;;;;;;;17.37;68.58;100210.56;2306079;76;52417;-74
2023/01/12 08:44:50;;;;;;;;;;;;;;;17.37;68.48;100214.58;2318627;74;51383;-74
2023/01/12 08:47:52;;;;;;;;;;;;;;;17.36;68.44;100199.53;2372588;73;51874;-75
2023/01/12 08:50:54;;;;;;;;;;;;;;;17.37;68.47;100196.68;2372638;74;50235;-75
2023/01/12 08:53:55;;;;;;;;;;;;;;;17.37;68.57;100199.87;2313841;75;51214;-76
2023/01/12 08:56:57;;;;;;;;;;;;;;;17.36;68.56;100199.53;2292424;76;50095;-75
2023/01/12 08:59:58;;;;;;;;;;;;;;;17.35;68.75;100196.55;2292482;77;50800;-75
2023/01/12 09:03:00;;;;;;;;;;;;;;;17.36;68.51;100186.16;2320639;75;51560;-75
2023/01/12 09:06:10;;;;;;;;;;;;;;;17.44;68.48;100192.73;2295125;76;52396;-75
2023/01/12 09:09:12;;;;;;;;;;;;;;;17.53;68.34;100196.16;2301635;75;50307;-75
2023/01/12 09:12:14;;;;;;;;;;;;;;;17.50;68.31;100177.81;2326549;74;51582;-75
2023/01/12 09:15:15;;;;;;;;;;;;;;;17.45;68.36;100179.70;2339268;74;50599;-74
2023/01/12 09:18:17;;;;;;;;;;;;;;;17.42;68.30;100182.76;2373089;74;51373;-74
2023/01/12 09:21:19;;;;;;;;;;;;;;;17.39;68.39;100175.08;2372669;74;51468;-74
2023/01/12 09:24:21;;;;;;;;;;;;;;;17.38;68.19;100166.23;2368259;74;51605;-74
2023/01/12 09:27:22;;;;;;;;;;;;;;;17.36;68.57;100159.41;2367482;74;51450;-74
2023/01/12 09:30:24;;;;;;;;;;;;;;;17.35;68.48;100161.78;2340308;75;50116;-74
2023/01/12 09:33:26;;;;;;;;;;;;;;;17.34;68.65;100158.77;2367396;74;50289;-74
2023/01/12 09:36:28;;;;;;;;;;;;;;;17.34;68.51;100156.09;2365509;74;50273;-74
2023/01/12 09:39:30;;;;;;;;;;;;;;;17.37;68.51;100153.07;2365602;74;50317;-74
2023/01/12 09:49:11;;;;;;;;;;;;;;;17.56;67.83;100146.28;2332353;75;22401;-74
2023/01/12 09:52:17;;;;;;;;;;;;;;;17.56;67.71;100133.73;2331531;75;51399;-74
2023/01/12 09:55:19;;;;;;;;;;;;;;;17.59;67.68;100124.50;2304133;75;50718;-74
2023/01/12 09:58:32;;;;;;;;;;;;;;;17.54;67.81;100123.72;2326566;76;50339;-74
2023/01/12 10:01:34;;;;;;;;;;;;;;;17.48;68.05;100120.48;2326741;76;50886;-74
2023/01/12 10:04:36;;;;;;;;;;;;;;;17.40;67.87;100120.08;2326367;75;50388;-74
2023/01/12 10:07:38;;;;;;;;;;;;;;;17.39;68.19;100124.27;2302172;76;50102;-74
2023/01/12 10:10:40;;;;;;;;;;;;;;;17.38;68.09;100109.25;2326604;76;51371;-74
2023/01/12 10:13:58;;;;;;;;;;;;;;;17.40;68.20;100107.22;2320175;74;50522;-74
2023/01/12 10:17:11;;;;;;;;;;;;;;;17.48;67.87;100095.06;2377274;73;50704;-74
2023/01/12 10:20:14;;;;;;;;;;;;;;;17.52;67.74;100099.52;2377496;74;51015;-74
2023/01/12 10:23:18;;;;;;;;;;;;;;;17.53;67.84;100095.84;2365542;74;51523;-74
2023/01/12 10:26:21;;;;;;;;;;;;;;;17.57;67.62;100095.28;2365565;74;51703;-74
2023/01/12 10:29:23;;;;;;;;;;;;;;;17.57;67.63;100092.61;2365690;75;50697;-74
2023/01/12 10:32:26;;;;;;;;;;;;;;;17.52;67.92;100078.12;2339988;74;50450;-74
2023/01/12 10:35:28;;;;;;;;;;;;;;;17.45;67.82;100079.92;2364579;75;50323;-74
2023/01/12 10:38:32;;;;;;;;;;;;;;;17.42;68.00;100083.80;2365487;74;50603;-74
2023/01/12 10:41:33;;;;;;;;;;;;;;;17.39;68.03;100086.34;2365826;75;22330;-74
2023/01/12 10:44:35;;;;;;;;;;;;;;;17.37;67.99;100079.53;2350745;74;51020;-74
2023/01/12 10:47:36;;;;;;;;;;;;;;;17.38;68.34;100087.86;2405136;73;51456;-74
2023/01/12 10:50:38;;;;;;;;;;;;;;;17.45;67.89;100072.72;2397665;74;51400;-74
2023/01/12 10:53:56;;;;;;;;;;;;;;;17.56;67.39;100064.18;2391580;74;51303;-74
2023/01/12 10:57:02;;;;;;;;;;;;;;;17.53;67.49;100054.38;2345025;75;49593;-74
2023/01/12 11:00:04;;;;;;;;;;;;;;;17.52;67.58;100068.27;2372542;75;50413;-74
2023/01/12 11:03:08;;;;;;;;;;;;;;;17.52;67.70;100045.53;2331568;76;50392;-74
2023/01/12 11:06:17;;;;;;;;;;;;;;;17.53;67.66;100043.69;2331866;76;50292;-74
2023/01/12 11:09:20;;;;;;;;;;;;;;;17.56;67.46;100028.06;2307619;76;53132;-74
2023/01/12 11:12:22;;;;;;;;;;;;;;;17.58;67.48;100031.91;2331510;74;50529;-74
2023/01/12 11:15:24;;;;;;;;;;;;;;;17.50;67.70;100030.18;2366371;74;50280;-74
2023/01/12 11:18:27;;;;;;;;;;;;;;;17.41;67.82;100019.28;2381786;74;50241;-74
2023/01/12 11:21:29;;;;;;;;;;;;;;;17.39;68.04;100003.92;2342562;75;49670;-74
2023/01/12 11:24:32;;;;;;;;;;;;;;;17.45;67.77;100008.53;2301960;76;52705;-73
2023/01/12 11:27:36;;;;;;;;;;;;;;;17.53;67.46;99984.32;2302363;76;50813;-74
2023/01/12 11:30:42;;;;;;;;;;;;;;;17.57;67.30;99994.97;2300773;76;50403;-74
2023/01/12 11:33:43;;;;;;;;;;;;;;;17.63;67.13;99975.46;2319093;75;22386;-73
2023/01/12 11:36:49;;;;;;;;;;;;;;;17.59;67.20;99979.53;2332164;75;51557;-73
2023/01/12 11:39:52;;;;;;;;;;;;;;;17.54;67.41;99985.96;2332367;74;52189;-75
2023/01/12 11:46:17;;;;;;;;;;;;;;;17.56;67.46;99993.81;2378943;73;22358;-72
2023/01/12 11:49:37;;;;;;;;;;;;;;;17.57;67.42;99998.12;2359991;74;50296;-73
2023/01/12 11:52:38;;;;;;;;;;;;;;;17.47;67.53;99970.87;2331704;76;50277;-73
2023/01/12 11:56:00;;;;;;;;;;;;;;;17.42;68.01;99968.80;2326802;76;50159;-73
2023/01/12 11:59:03;;;;;;;;;;;;;;;17.45;67.80;99977.77;2301945;76;51946;-73
2023/01/12 12:02:06;;;;;;;;;;;;;;;17.58;67.37;99970.37;2326401;75;50785;-74
2023/01/12 12:05:09;;;;;;;;;;;;;;;17.61;67.18;99964.11;2326679;76;50651;-73
2023/01/12 12:08:13;;;;;;;;;;;;;;;17.63;67.10;99947.88;2326623;75;50287;-73
2023/01/12 12:11:16;;;;;;;;;;;;;;;17.66;67.04;99958.70;2302162;76;52444;-73
2023/01/12 12:14:22;;;;;;;;;;;;;;;17.59;67.13;99962.14;2344943;74;51396;-73
2023/01/12 12:17:26;;;;;;;;;;;;;;;17.58;67.19;99959.16;2391307;74;51458;-72
2023/01/12 12:20:34;;;;;;;;;;;;;;;17.56;67.27;99957.18;2395863;74;51441;-72
2023/01/12 12:23:54;;;;;;;;;;;;;;;17.57;67.27;99965.55;2372294;74;50098;-74
2023/01/12 12:26:57;;;;;;;;;;;;;;;17.51;67.70;99970.30;2395912;74;50455;-72
2023/01/12 12:30:17;;;;;;;;;;;;;;;17.41;68.04;99975.15;2395857;74;50473;-72
2023/01/12 12:33:23;;;;;;;;;;;;;;;17.45;67.71;99964.92;2395626;74;51598;-74
2023/01/12 12:36:30;;;;;;;;;;;;;;;17.52;67.39;99955.93;2400722;73;51144;-73
2023/01/12 12:39:36;;;;;;;;;;;;;;;17.56;67.25;99961.19;2400428;74;52572;-72
2023/01/12 12:46:30;;;;;;;;;;;;;;;17.51;67.37;99948.91;2373393;73;22406;-73
2023/01/12 12:49:31;;;;;;;;;;;;;;;17.50;67.41;99960.64;2372041;73;51233;-73
2023/01/12 12:52:34;;;;;;;;;;;;;;;17.49;67.49;99954.95;2395533;74;50404;-73
2023/01/12 12:55:36;;;;;;;;;;;;;;;17.52;67.45;99934.53;2372543;74;52508;-72
2023/01/12 12:58:42;;;;;;;;;;;;;;;17.43;67.77;99943.70;2395785;74;50642;-73
2023/01/12 13:01:46;;;;;;;;;;;;;;;17.39;68.06;99957.13;2400639;74;51736;-72
2023/01/12 13:04:50;;;;;;;;;;;;;;;17.38;68.08;99947.46;2395730;73;51553;-74
2023/01/12 13:07:52;;;;;;;;;;;;;;;17.42;67.76;99952.75;2395729;74;50104;-73
2023/01/12 13:10:54;;;;;;;;;;;;;;;17.46;67.57;99951.33;2400524;73;51579;-73
2023/01/12 13:13:58;;;;;;;;;;;;;;;17.60;67.17;99960.31;2361944;74;50525;-75
2023/01/12 13:17:01;;;;;;;;;;;;;;;17.69;66.88;99952.97;2336545;74;51559;-74
2023/01/12 13:20:04;;;;;;;;;;;;;;;17.67;66.91;99945.12;2317128;76;50660;-76
2023/01/12 13:23:07;;;;;;;;;;;;;;;17.70;66.73;99955.94;2357086;75;51416;-76
2023/01/12 13:26:10;;;;;;;;;;;;;;;17.65;66.89;99943.17;2319597;75;52470;-74
2023/01/12 13:29:16;;;;;;;;;;;;;;;17.64;66.86;99967.73;2378515;73;51510;-74
2023/01/12 13:32:34;;;;;;;;;;;;;;;17.60;67.03;99948.28;2333570;74;50787;-75
2023/01/12 13:35:39;;;;;;;;;;;;;;;17.59;67.04;99949.28;2331419;76;51535;-74
2023/01/12 13:38:45;;;;;;;;;;;;;;;17.57;67.33;99955.33;2308745;76;51642;-76
2023/01/12 13:45:18;;;;;;;;;;;;;;;17.52;67.49;99941.70;2352560;74;24355;-74
2023/01/12 13:48:20;;;;;;;;;;;;;;;17.54;67.53;99945.02;2372330;75;50439;-73
2023/01/12 13:51:23;;;;;;;;;;;;;;;17.55;67.42;99944.84;2324481;74;51137;-72
2023/01/12 13:54:25;;;;;;;;;;;;;;;17.63;67.26;99954.05;2294045;75;50287;-75
2023/01/12 13:57:28;;;;;;;;;;;;;;;17.59;67.64;99943.41;2333743;75;51482;-75
2023/01/12 14:00:31;;;;;;;;;;;;;;;17.57;67.72;99950.83;2332783;76;50342;-75
2023/01/12 14:03:46;;;;;;;;;;;;;;;17.57;67.76;99958.00;2303852;76;49630;-76
2023/01/12 14:07:02;;;;;;;;;;;;;;;17.53;67.85;99949.55;2334201;75;50285;-75
2023/01/12 14:10:17;;;;;;;;;;;;;;;17.54;67.87;99944.50;2330363;75;50322;-76
2023/01/12 14:13:39;;;;;;;;;;;;;;;17.49;68.04;99961.64;2338632;74;50429;-74
2023/01/12 14:20:00;;;;;;;;;;;;;;;17.50;67.90;99951.28;2332584;75;23110;-75
2023/01/12 14:23:12;;;;;;;;;;;;;;;17.56;67.76;99941.13;2333182;74;51419;-74
2023/01/12 14:26:16;;;;;;;;;;;;;;;17.59;67.64;99951.44;2335187;74;50370;-75
2023/01/12 14:29:18;;;;;;;;;;;;;;;17.58;67.72;99944.96;2304607;75;51223;-74
2023/01/12 14:32:19;;;;;;;;;;;;;;;17.59;67.75;99954.11;2331862;75;50306;-76
2023/01/12 14:35:21;;;;;;;;;;;;;;;17.55;67.96;99960.89;2331544;75;50234;-74
2023/01/12 14:38:24;;;;;;;;;;;;;;;17.51;68.19;99948.91;2330592;75;50667;-74
2023/01/12 14:48:22;;;;;;;;;;;;;;;17.49;68.34;99936.75;2328202;75;23166;-76
2023/01/12 14:51:33;;;;;;;;;;;;;;;17.49;68.32;99944.77;2327070;76;51576;-75
2023/01/12 14:54:32;;;;;;;;;;;;;;;17.49;67.99;99941.58;2368795;74;22601;-76
2023/01/12 14:57:33;;;;;;;;;;;;;;;17.53;67.78;99941.52;2395878;74;50006;-76
2023/01/12 15:00:35;;;;;;;;;;;;;;;17.59;67.52;99940.73;2396038;74;50385;-76
2023/01/12 15:03:37;;;;;;;;;;;;;;;17.58;67.51;99946.30;2396011;74;51513;-75
2023/01/12 15:06:39;;;;;;;;;;;;;;;17.53;67.63;99941.52;2372930;74;52336;-75
2023/01/12 15:09:42;;;;;;;;;;;;;;;17.50;67.76;99939.23;2352889;74;50409;-75
2023/01/12 15:12:46;;;;;;;;;;;;;;;17.51;67.62;99943.56;2339808;74;50143;-75
2023/01/12 15:25:47;;;;;;;;;;;;;;;17.47;67.91;99954.34;2372763;75;21665;-76
2023/01/12 15:28:49;;;;;;;;;;;;;;;17.50;67.67;99949.12;2372326;75;51290;-79
2023/01/12 15:31:50;;;;;;;;;;;;;;;17.58;67.46;99954.33;2370777;75;51745;-77
2023/01/12 15:34:52;;;;;;;;;;;;;;;17.66;67.11;99946.16;2331948;76;50363;-76
2023/01/12 15:37:54;;;;;;;;;;;;;;;17.71;66.93;99948.25;2332002;76;51434;-77
2023/01/12 15:40:56;;;;;;;;;;;;;;;17.77;66.73;99955.49;2332886;75;50653;-77
2023/01/12 15:43:57;;;;;;;;;;;;;;;17.79;66.60;99954.30;2348144;74;50295;-76
2023/01/12 15:46:59;;;;;;;;;;;;;;;17.79;66.52;99956.98;2371125;74;51552;-76
2023/01/12 15:50:00;;;;;;;;;;;;;;;17.79;66.47;99956.13;2346697;74;52127;-75
2023/01/12 15:53:02;;;;;;;;;;;;;;;17.74;66.63;99958.56;2299921;75;52202;-77
2023/01/12 15:56:04;;;;;;;;;;;;;;;17.67;67.72;99955.00;2244743;77;52516;-75
2023/01/12 15:59:05;;;;;;;;;;;;;;;17.66;67.85;99949.34;2292707;77;51590;-76
2023/01/12 16:02:24;;;;;;;;;;;;;;;17.66;68.13;99949.34;2327628;75;51401;-75
2023/01/12 16:05:25;;;;;;;;;;;;;;;17.70;67.58;99954.61;2332032;76;50266;-76
2023/01/12 16:08:27;;;;;;;;;;;;;;;17.70;67.71;99953.27;2307574;76;49641;-75
2023/01/12 16:11:28;;;;;;;;;;;;;;;17.71;67.83;99956.28;2324957;75;50633;-75
2023/01/12 16:14:30;;;;;;;;;;;;;;;17.69;67.76;99956.46;2347259;74;50215;-75
2023/01/12 16:17:32;;;;;;;;;;;;;;;17.70;68.08;99955.45;2376761;74;50279;-75
2023/01/12 16:20:33;;;;;;;;;;;;;;;17.77;68.05;99958.17;2350800;75;52671;-75
2023/01/12 16:23:36;;;;;;;;;;;;;;;17.78;68.05;99967.87;2336590;74;50132;-75
2023/01/12 16:26:38;;;;;;;;;;;;;;;17.75;67.92;99965.55;2332053;76;51622;-75
2023/01/12 16:29:39;;;;;;;;;;;;;;;17.74;67.92;99963.40;2361055;73;51845;-75
2023/01/12 16:32:45;;;;;;;;;;;;;;;17.72;67.86;99964.61;2344575;74;51533;-75
2023/01/12 16:35:44;;;;;;;;;;;;;;;17.72;67.89;99961.94;2371861;72;22606;-76
2023/01/12 16:38:46;;;;;;;;;;;;;;;17.68;68.04;99962.84;2372098;75;51575;-75
2023/01/12 16:41:47;;;;;;;;;;;;;;;17.67;67.99;99955.82;2374220;74;50229;-75
2023/01/12 16:44:49;;;;;;;;;;;;;;;17.67;67.98;99962.51;2354478;74;52347;-75
2023/01/12 16:47:52;;;;;;;;;;;;;;;17.67;67.90;99969.72;2377533;74;51527;-75